Pagina principale
METAR-TAF:

METAR-TAF

Aeroporti :

Pratica Di Mare, Italia

Aeroporto militare Mario de Bernardi

latitudine: 41-39N, longitudine: 012-27E, altezza: 6 m

Osservazione

Il bollettino è stato emesso 1 ora e 3 minuti fa, alle 23:55 UTC
Vento 14 kt da ovest
Temperature 14°C
Umidità 94%
Pressione 1010 hPa
Visibilità 10 km o più
Nubi sparse ad un'altezza di 2000 ft
Nuvoloso ad un'altezza di 3000 ft

METAR: LIRE 162355Z 27014KT 9999 SCT020 BKN030 14/13 Q1010 RMK OVC VIS MIN 9999 WIND THR13 29011KT WIND THR31 28012KT BLU

Ora: 01:58 (00:58 UTC)

Previsione

Il bollettino è stato emesso 1 ora e 58 minuti fa, alle 23:00 UTC
Previsione valida dal 17 alle 00 UTC al 17 alle 09 UTC
Vento 13 kt da ovest
Visibilità 10 km o più
Nubi sparse ad un'altezza di 2000 ft
Nubi sparse ad un'altezza di 3000 ft
Temporaneamente
dal 17 alle 04 UTC al 17 alle 07 UTC
Vento 20 kt da ovest con raffiche fino a 30 kt

TAF: LIRE 162300Z 1700/1709 27013KT 9999 SCT020 SCT030 TEMPO 1704/1707 27020G30KT

Osservazioni e previsioni meteorologiche di più di 4000 aeroporti (messaggi METAR e TAF).

Le stazioni disponibili sono rappresentate dai dischi gialli e rossi sulla carta.

Puntare il mouse per vedere il nome della stazione.

Clicca sopra per visualizzare le osservazioni e previsioni meteorologiche.

Per cambiare la mappa : fare clic sui pulsanti verdi con una croce nera per ingrandire, il pulsante verde con un trattino per diminuire, o sulla freccia verde per le mappe adiacenti.


METAR-TAF: